Weather report/warning/Metars

Edinburgh Airport, United Kingdom (EGPH) 55-57N 003-21W 0M
Apr 16, 2024 - 04:50 PM EDT / 2024.04.16 2050 UTC
Wind: from the WNW (300 degrees) at 8 MPH (7 KT) (direction variable):0
Visibility: greater than 7 mile(s):0
Sky conditions: partly cloudy
Weather: light rain
Temperature: 44 F (7 C)
Dew Point: 33 F (1 C)
Relative Humidity: 65%
Pressure (altimeter): 29.97 in. Hg (1015 hPa)
ob: EGPH 162050Z 30007KT 260V010 9999 -RA SCT022 07/01 Q1015
cycle: 21



The data is logged at two minute intervals, but there is data recorded every minute.

Use the RELOAD facility on your browser to retrieve the latest data.

Click here for a daily update of the averages/extremes to date for the month
Created by "Weather Display" software version 10.37S150 at this start time/date 17:24:51 15/04/24